Time;durP1;ratioP1;P1;durP2;ratioP2;P2;SDS_P1;SDS_P2;PMS_P1;PMS_P2;Temp;Humidity;BMP_temperature;BMP_pressure;BME280_temperature;BME280_humidity;BME280_pressure;Samples;Min_cycle;Max_cycle;Signal;HPM_P1;HPM_P2
2021/03/12 00:02:11;;;;;;;19.67;3.00;;;;;;;;;;5000766;28;20546;-66
2021/03/12 00:04:37;;;;;;;11.20;2.35;;;;;;;;;;4989610;28;20105;-65
2021/03/12 00:07:02;;;;;;;21.83;2.67;;;;;;;;;;5000635;28;20057;-65
2021/03/12 00:09:27;;;;;;;24.45;3.05;;;;;;;;;;4997797;28;20056;-65
2021/03/12 00:11:53;;;;;;;21.40;2.88;;;;;;;;;;4997214;28;20362;-65
2021/03/12 00:14:18;;;;;;;15.65;3.25;;;;;;;;;;5006329;28;20065;-65
2021/03/12 00:16:44;;;;;;;17.33;2.90;;;;;;;;;;4990792;28;20093;-65
2021/03/12 00:19:09;;;;;;;22.23;3.83;;;;;;;;;;4992933;28;20023;-65
2021/03/12 00:21:34;;;;;;;21.17;3.05;;;;;;;;;;4992747;28;20030;-65
2021/03/12 00:23:59;;;;;;;19.70;3.22;;;;;;;;;;4993905;28;20117;-65
2021/03/12 00:26:25;;;;;;;14.68;2.83;;;;;;;;;;4994574;28;20022;-65
2021/03/12 00:28:50;;;;;;;28.27;3.72;;;;;;;;;;4994606;28;20474;-65
2021/03/12 00:31:15;;;;;;;27.08;4.15;;;;;;;;;;4994186;28;20118;-64
2021/03/12 00:33:40;;;;;;;25.23;3.40;;;;;;;;;;4993850;28;20010;-65
2021/03/12 00:36:06;;;;;;;30.50;3.60;;;;;;;;;;4993721;28;20045;-65
2021/03/12 00:38:31;;;;;;;24.25;3.22;;;;;;;;;;4993560;28;20480;-64
2021/03/12 00:40:58;;;;;;;20.23;3.25;;;;;;;;;;4993530;28;20033;-65
2021/03/12 00:43:23;;;;;;;17.42;2.63;;;;;;;;;;4993204;28;20057;-65
2021/03/12 00:45:54;;;;;;;21.45;2.58;;;;;;;;;;4993351;28;20042;-65
2021/03/12 00:48:19;;;;;;;30.35;3.83;;;;;;;;;;4993158;28;20035;-65
2021/03/12 00:50:45;;;;;;;13.07;3.10;;;;;;;;;;4993220;28;20065;-65
2021/03/12 00:53:10;;;;;;;26.27;3.45;;;;;;;;;;4993325;28;20036;-65
2021/03/12 00:55:36;;;;;;;24.60;3.50;;;;;;;;;;4992650;28;20026;-65
2021/03/12 00:58:02;;;;;;;25.67;5.18;;;;;;;;;;4993112;28;20030;-66
2021/03/12 01:00:28;;;;;;;18.00;2.67;;;;;;;;;;4993854;28;20097;-65
2021/03/12 01:02:53;;;;;;;21.65;3.00;;;;;;;;;;4993420;28;20069;-65
2021/03/12 01:05:19;;;;;;;31.27;5.43;;;;;;;;;;4993206;28;20026;-65
2021/03/12 01:07:45;;;;;;;29.90;3.90;;;;;;;;;;4992999;28;20046;-65
2021/03/12 01:10:11;;;;;;;25.52;3.58;;;;;;;;;;4993132;28;20018;-65
2021/03/12 01:12:36;;;;;;;34.22;6.00;;;;;;;;;;4992805;28;20034;-65
2021/03/12 01:15:06;;;;;;;17.85;2.97;;;;;;;;;;4993355;28;20046;-65
2021/03/12 01:17:32;;;;;;;26.77;3.58;;;;;;;;;;4993057;28;20471;-65
2021/03/12 01:19:57;;;;;;;21.80;3.55;;;;;;;;;;4991255;28;20034;-65
2021/03/12 01:22:22;;;;;;;16.75;3.15;;;;;;;;;;4992651;28;20040;-65
2021/03/12 01:24:47;;;;;;;15.38;2.50;;;;;;;;;;4992319;28;20435;-65
2021/03/12 01:27:13;;;;;;;15.02;2.40;;;;;;;;;;4992223;28;20026;-65
2021/03/12 01:29:38;;;;;;;12.35;1.65;;;;;;;;;;4992632;28;20121;-65
2021/03/12 01:32:03;;;;;;;16.15;2.22;;;;;;;;;;4992684;28;20015;-65
2021/03/12 01:34:29;;;;;;;15.32;1.98;;;;;;;;;;4992113;28;20038;-65
2021/03/12 01:36:54;;;;;;;18.15;3.58;;;;;;;;;;4992550;28;20042;-65
2021/03/12 01:39:20;;;;;;;15.77;2.35;;;;;;;;;;4992035;28;20030;-65
2021/03/12 01:41:45;;;;;;;17.08;2.85;;;;;;;;;;4991192;28;20026;-66
2021/03/12 01:44:10;;;;;;;12.10;2.15;;;;;;;;;;4992431;28;20058;-65
2021/03/12 01:46:36;;;;;;;8.35;1.67;;;;;;;;;;4992263;28;20072;-65
2021/03/12 01:49:01;;;;;;;11.35;1.95;;;;;;;;;;4991897;28;20046;-65
2021/03/12 01:51:26;;;;;;;11.32;1.90;;;;;;;;;;4991886;28;20046;-65
2021/03/12 01:53:52;;;;;;;8.30;1.52;;;;;;;;;;4991922;28;20034;-65
2021/03/12 01:56:17;;;;;;;12.82;1.95;;;;;;;;;;4991986;28;20038;-65
2021/03/12 01:58:43;;;;;;;11.50;1.35;;;;;;;;;;4992713;28;20379;-65
2021/03/12 02:01:08;;;;;;;15.27;2.00;;;;;;;;;;4991763;28;20023;-65
2021/03/12 02:03:34;;;;;;;16.33;2.95;;;;;;;;;;4991296;28;20034;-65
2021/03/12 02:05:59;;;;;;;11.38;1.73;;;;;;;;;;4992064;28;20391;-65
2021/03/12 02:08:24;;;;;;;20.02;3.42;;;;;;;;;;4990891;28;20076;-65
2021/03/12 02:10:50;;;;;;;19.08;1.65;;;;;;;;;;4991745;28;20462;-66
2021/03/12 02:13:21;;;;;;;16.13;2.05;;;;;;;;;;4972462;28;20126;-65
2021/03/12 02:15:52;;;;;;;13.15;1.55;;;;;;;;;;4972904;28;20023;-65
2021/03/12 02:18:23;;;;;;;12.48;1.80;;;;;;;;;;4972714;28;20026;-65
2021/03/12 02:21:01;;;;;;;15.90;2.03;;;;;;;;;;4972665;28;20038;-65
2021/03/12 02:23:32;;;;;;;12.80;1.50;;;;;;;;;;4981484;28;20482;-65
2021/03/12 02:26:06;;;;;;;11.13;1.92;;;;;;;;;;4990457;28;20030;-66
2021/03/12 02:28:31;;;;;;;10.48;1.95;;;;;;;;;;4990929;28;20060;-65
2021/03/12 02:30:57;;;;;;;13.75;1.83;;;;;;;;;;4990671;28;20030;-65
2021/03/12 02:33:23;;;;;;;12.60;1.35;;;;;;;;;;4991653;28;20121;-65
2021/03/12 02:35:53;;;;;;;12.10;1.80;;;;;;;;;;4991386;28;20026;-65
2021/03/12 02:38:19;;;;;;;13.20;3.58;;;;;;;;;;4991171;28;20121;-65
2021/03/12 02:40:45;;;;;;;17.52;2.45;;;;;;;;;;4990546;28;20022;-66
2021/03/12 02:43:11;;;;;;;15.05;1.63;;;;;;;;;;4990764;28;20030;-65
2021/03/12 02:45:36;;;;;;;19.65;2.17;;;;;;;;;;4990684;28;20068;-65
2021/03/12 02:48:02;;;;;;;14.35;1.92;;;;;;;;;;4990934;28;20066;-65
2021/03/12 02:50:27;;;;;;;7.82;1.67;;;;;;;;;;4990877;28;20026;-65
2021/03/12 02:52:53;;;;;;;23.98;2.50;;;;;;;;;;4990969;28;20034;-65
2021/03/12 02:55:18;;;;;;;22.80;2.30;;;;;;;;;;4990724;28;20027;-65
2021/03/12 02:57:44;;;;;;;22.30;3.58;;;;;;;;;;4990528;28;20101;-65
2021/03/12 03:00:09;;;;;;;21.23;3.38;;;;;;;;;;4990788;28;20038;-66
2021/03/12 03:02:35;;;;;;;17.33;2.45;;;;;;;;;;4990547;28;20414;-65
2021/03/12 03:05:00;;;;;;;28.80;2.83;;;;;;;;;;4991237;28;20038;-65
2021/03/12 03:07:27;;;;;;;14.43;2.55;;;;;;;;;;4990793;28;20046;-65
2021/03/12 03:09:53;;;;;;;11.82;1.95;;;;;;;;;;4990716;28;20073;-65
2021/03/12 03:12:19;;;;;;;14.60;1.73;;;;;;;;;;4990619;28;20049;-65
2021/03/12 03:14:46;;;;;;;15.82;1.50;;;;;;;;;;4990270;28;20383;-65
2021/03/12 03:17:11;;;;;;;7.47;1.10;;;;;;;;;;4990695;28;20045;-65
2021/03/12 03:19:37;;;;;;;7.68;1.08;;;;;;;;;;4990436;28;20066;-66
2021/03/12 03:22:02;;;;;;;6.07;2.08;;;;;;;;;;4991021;28;20041;-65
2021/03/12 03:24:29;;;;;;;6.20;1.05;;;;;;;;;;4990073;28;20069;-65
2021/03/12 03:26:54;;;;;;;7.40;0.82;;;;;;;;;;4990488;28;20041;-65
2021/03/12 03:29:20;;;;;;;7.53;1.23;;;;;;;;;;4990447;28;20403;-65
2021/03/12 03:31:45;;;;;;;6.90;0.77;;;;;;;;;;4990295;28;20027;-65
2021/03/12 03:34:11;;;;;;;7.45;0.85;;;;;;;;;;4990228;28;20062;-66
2021/03/12 03:36:36;;;;;;;11.88;1.38;;;;;;;;;;4991332;28;20045;-65
2021/03/12 03:39:01;;;;;;;3.58;0.80;;;;;;;;;;4990613;28;20021;-65
2021/03/12 03:41:27;;;;;;;7.57;1.10;;;;;;;;;;4989869;28;20034;-65
2021/03/12 03:43:53;;;;;;;13.60;1.23;;;;;;;;;;4991747;28;20061;-65
2021/03/12 03:46:20;;;;;;;7.38;1.30;;;;;;;;;;4994459;28;20064;-65
2021/03/12 03:48:45;;;;;;;8.82;0.82;;;;;;;;;;4994124;28;20447;-65
2021/03/12 03:51:12;;;;;;;7.78;1.17;;;;;;;;;;4994895;28;20117;-65
2021/03/12 03:53:38;;;;;;;11.30;1.38;;;;;;;;;;4994144;28;20018;-65
2021/03/12 03:56:04;;;;;;;11.05;1.73;;;;;;;;;;4994282;28;20184;-65
2021/03/12 03:58:30;;;;;;;6.45;0.98;;;;;;;;;;4994326;28;20546;-65
2021/03/12 04:00:55;;;;;;;10.63;2.13;;;;;;;;;;4994192;28;20380;-65
2021/03/12 04:03:21;;;;;;;16.08;1.65;;;;;;;;;;4993979;28;20069;-65
2021/03/12 04:05:47;;;;;;;7.68;1.25;;;;;;;;;;4994447;28;20065;-66
2021/03/12 04:08:12;;;;;;;16.25;1.92;;;;;;;;;;4994366;28;20057;-65
2021/03/12 04:10:37;;;;;;;12.50;1.17;;;;;;;;;;4994040;28;20034;-65
2021/03/12 04:13:03;;;;;;;9.85;1.58;;;;;;;;;;4993272;28;20038;-65
2021/03/12 04:15:28;;;;;;;3.63;1.00;;;;;;;;;;4993719;28;20026;-65
2021/03/12 04:17:54;;;;;;;6.50;1.08;;;;;;;;;;4993906;28;20034;-65
2021/03/12 04:20:20;;;;;;;6.43;1.23;;;;;;;;;;4994175;28;20395;-66
2021/03/12 04:22:45;;;;;;;13.93;2.05;;;;;;;;;;4993850;28;20026;-65
2021/03/12 04:25:11;;;;;;;9.30;1.20;;;;;;;;;;4992637;28;20041;-65
2021/03/12 04:27:37;;;;;;;11.23;1.33;;;;;;;;;;4993506;28;20046;-65
2021/03/12 04:30:03;;;;;;;11.70;2.38;;;;;;;;;;4993405;28;20026;-65
2021/03/12 04:32:28;;;;;;;14.85;1.55;;;;;;;;;;4993633;28;20105;-65
2021/03/12 04:34:53;;;;;;;14.05;1.65;;;;;;;;;;4993371;28;20116;-66
2021/03/12 04:37:19;;;;;;;9.15;1.02;;;;;;;;;;4993907;28;20015;-65
2021/03/12 04:39:44;;;;;;;9.02;1.30;;;;;;;;;;4993319;28;20105;-65
2021/03/12 04:42:10;;;;;;;9.13;1.23;;;;;;;;;;4992481;28;20042;-65
2021/03/12 04:44:36;;;;;;;17.38;2.83;;;;;;;;;;4992519;28;20447;-65
2021/03/12 04:47:03;;;;;;;14.57;1.85;;;;;;;;;;4992253;28;20069;-66
2021/03/12 04:49:28;;;;;;;15.68;1.80;;;;;;;;;;4992986;28;20048;-66
2021/03/12 04:51:54;;;;;;;20.20;1.58;;;;;;;;;;4993991;28;20101;-65
2021/03/12 04:54:19;;;;;;;19.33;2.65;;;;;;;;;;4992394;28;20446;-65
2021/03/12 04:56:45;;;;;;;21.27;2.90;;;;;;;;;;4993228;28;20038;-65
2021/03/12 04:59:11;;;;;;;19.05;2.13;;;;;;;;;;4993029;28;20038;-65
2021/03/12 05:01:36;;;;;;;20.50;2.45;;;;;;;;;;4992941;28;20042;-65
2021/03/12 05:04:03;;;;;;;16.25;2.53;;;;;;;;;;4992589;28;20112;-66
2021/03/12 05:06:29;;;;;;;16.23;2.05;;;;;;;;;;4993665;28;20143;-65
2021/03/12 05:08:55;;;;;;;24.25;2.95;;;;;;;;;;4992914;28;20055;-66
2021/03/12 05:11:20;;;;;;;24.55;2.42;;;;;;;;;;4992724;28;20030;-65
2021/03/12 05:13:48;;;;;;;22.17;2.20;;;;;;;;;;4992347;28;20450;-65
2021/03/12 05:16:13;;;;;;;20.23;2.72;;;;;;;;;;4992804;28;20023;-65
2021/03/12 05:18:39;;;;;;;25.73;2.33;;;;;;;;;;4992727;28;20046;-65
2021/03/12 05:21:04;;;;;;;15.95;2.38;;;;;;;;;;4993159;28;20068;-66
2021/03/12 05:23:29;;;;;;;14.00;2.35;;;;;;;;;;4992316;28;20030;-66
2021/03/12 05:25:54;;;;;;;16.88;2.13;;;;;;;;;;4992695;28;20945;-65
2021/03/12 05:28:20;;;;;;;17.30;1.83;;;;;;;;;;4992463;28;20086;-66
2021/03/12 05:30:45;;;;;;;11.68;2.20;;;;;;;;;;4992625;28;20065;-65
2021/03/12 05:33:10;;;;;;;17.45;2.22;;;;;;;;;;4992127;28;20049;-66
2021/03/12 05:35:35;;;;;;;15.60;2.50;;;;;;;;;;4992614;28;20018;-65
2021/03/12 05:38:01;;;;;;;16.13;1.70;;;;;;;;;;4992531;28;20069;-66
2021/03/12 05:40:26;;;;;;;12.55;1.90;;;;;;;;;;4990355;28;20038;-66
2021/03/12 05:42:52;;;;;;;14.15;1.60;;;;;;;;;;4992196;28;20045;-65
2021/03/12 05:45:18;;;;;;;14.70;2.17;;;;;;;;;;4991427;28;20039;-66
2021/03/12 05:47:43;;;;;;;7.70;1.63;;;;;;;;;;4992033;28;20085;-66
2021/03/12 05:50:09;;;;;;;13.55;2.25;;;;;;;;;;4992849;28;20038;-66
2021/03/12 05:52:34;;;;;;;14.38;1.77;;;;;;;;;;4991833;28;20034;-66
2021/03/12 05:55:00;;;;;;;17.48;2.33;;;;;;;;;;4991603;28;20038;-66
2021/03/12 05:57:27;;;;;;;19.52;3.28;;;;;;;;;;4992144;28;20407;-66
2021/03/12 05:59:53;;;;;;;13.63;1.42;;;;;;;;;;4991462;28;20494;-66
2021/03/12 06:02:18;;;;;;;5.93;1.10;;;;;;;;;;4992040;28;20038;-66
2021/03/12 06:04:46;;;;;;;7.22;1.75;;;;;;;;;;4992284;28;20026;-66
2021/03/12 06:07:16;;;;;;;7.65;1.27;;;;;;;;;;4992028;28;20030;-66
2021/03/12 06:09:42;;;;;;;7.15;1.23;;;;;;;;;;4992378;28;20435;-65
2021/03/12 06:12:07;;;;;;;7.95;1.27;;;;;;;;;;4991374;28;20105;-66
2021/03/12 06:14:59;;;;;;;9.90;1.00;;;;;;;;;;4991383;28;20357;-66
2021/03/12 06:17:33;;;;;;;7.50;1.33;;;;;;;;;;4991121;28;20101;-66
2021/03/12 06:19:59;;;;;;;10.15;1.60;;;;;;;;;;4991248;28;20467;-66
2021/03/12 06:22:24;;;;;;;11.95;1.77;;;;;;;;;;4991772;28;20045;-66
2021/03/12 06:24:49;;;;;;;4.28;1.15;;;;;;;;;;4991436;28;20019;-67
2021/03/12 06:27:28;;;;;;;10.65;1.40;;;;;;;;;;4991744;28;20058;-65
2021/03/12 06:29:58;;;;;;;12.93;1.88;;;;;;;;;;4991400;28;20042;-66
2021/03/12 06:32:35;;;;;;;14.35;1.67;;;;;;;;;;4991469;28;20038;-66
2021/03/12 06:35:00;;;;;;;9.70;1.60;;;;;;;;;;4990831;28;20042;-66
2021/03/12 06:37:27;;;;;;;12.02;2.10;;;;;;;;;;4991604;28;20034;-66
2021/03/12 06:39:53;;;;;;;9.73;1.30;;;;;;;;;;4990906;28;20034;-66
2021/03/12 06:42:18;;;;;;;8.10;2.35;;;;;;;;;;4990606;28;20026;-65
2021/03/12 06:44:43;;;;;;;8.10;2.00;;;;;;;;;;4990798;28;20498;-66
2021/03/12 06:47:08;;;;;;;13.60;1.55;;;;;;;;;;4981103;28;20054;-66
2021/03/12 06:49:51;;;;;;;10.68;1.83;;;;;;;;;;4976062;28;20030;-66
2021/03/12 06:52:16;;;;;;;6.28;1.33;;;;;;;;;;4976194;28;20133;-66
2021/03/12 06:54:50;;;;;;;6.88;1.75;;;;;;;;;;4971351;28;20488;-66
2021/03/12 06:57:19;;;;;;;10.20;1.50;;;;;;;;;;4971473;28;20033;-66
2021/03/12 06:59:44;;;;;;;5.40;1.08;;;;;;;;;;4971260;28;20539;-65
2021/03/12 07:02:10;;;;;;;6.05;2.20;;;;;;;;;;4971507;28;20154;-66
2021/03/12 07:04:35;;;;;;;11.02;1.67;;;;;;;;;;4971229;28;20464;-66
2021/03/12 07:07:01;;;;;;;4.70;1.52;;;;;;;;;;4971588;28;20469;-66
2021/03/12 07:09:27;;;;;;;8.60;2.10;;;;;;;;;;4971826;28;20038;-66
2021/03/12 07:11:54;;;;;;;9.77;2.13;;;;;;;;;;4979577;28;20030;-66
2021/03/12 07:14:20;;;;;;;10.90;1.75;;;;;;;;;;4990427;28;20026;-65
2021/03/12 07:16:45;;;;;;;6.38;1.90;;;;;;;;;;4990249;28;20029;-65
2021/03/12 07:19:10;;;;;;;10.27;1.60;;;;;;;;;;4989926;28;20038;-66
2021/03/12 07:21:36;;;;;;;35.60;10.90;;;;;;;;;;4984316;28;20244;-65
2021/03/12 07:24:02;;;;;;;9.13;3.20;;;;;;;;;;4991189;28;20026;-65
2021/03/12 07:26:37;;;;;;;35.78;9.32;;;;;;;;;;4990526;28;20038;-66
2021/03/12 07:29:04;;;;;;;16.05;3.25;;;;;;;;;;4983284;28;20034;-66
2021/03/12 07:31:36;;;;;;;10.85;1.95;;;;;;;;;;4976028;28;20023;-66
2021/03/12 07:34:12;;;;;;;13.13;2.40;;;;;;;;;;4971573;28;20042;-66
2021/03/12 07:36:37;;;;;;;;;;;;;;;;;;4971330;28;20412;-66
2021/03/12 07:39:03;;;;;;;13.38;3.15;;;;;;;;;;4971119;28;20291;-65
2021/03/12 07:41:28;;;;;;;18.50;6.55;;;;;;;;;;4979626;28;21212;-66
2021/03/12 07:43:54;;;;;;;7.63;1.38;;;;;;;;;;4984928;28;20053;-66
2021/03/12 07:46:19;;;;;;;11.95;2.40;;;;;;;;;;4987758;28;20015;-66
2021/03/12 07:48:45;;;;;;;7.82;2.28;;;;;;;;;;4987462;28;20487;-66
2021/03/12 07:51:11;;;;;;;32.67;8.18;;;;;;;;;;4988394;28;20030;-66
2021/03/12 07:54:02;;;;;;;27.58;9.80;;;;;;;;;;4988183;28;20023;-66
2021/03/12 07:56:43;;;;;;;11.68;2.25;;;;;;;;;;4986219;28;20415;-66
2021/03/12 07:59:08;;;;;;;8.82;2.03;;;;;;;;;;4987629;28;20022;-66
2021/03/12 08:01:53;;;;;;;12.57;1.90;;;;;;;;;;4987388;28;20030;-65
2021/03/12 08:04:32;;;;;;;12.93;3.92;;;;;;;;;;4987871;28;20032;-66
2021/03/12 08:06:58;;;;;;;15.80;4.65;;;;;;;;;;4986592;28;20050;-66
2021/03/12 08:09:35;;;;;;;10.20;2.63;;;;;;;;;;4986396;28;20475;-66
2021/03/12 08:12:00;;;;;;;20.77;3.13;;;;;;;;;;4980131;28;20434;-66
2021/03/12 08:14:25;;;;;;;6.78;1.83;;;;;;;;;;4972610;28;20019;-66
2021/03/12 08:16:57;;;;;;;7.90;1.40;;;;;;;;;;4988141;28;20045;-66
2021/03/12 08:19:32;;;;;;;6.90;1.50;;;;;;;;;;4979994;28;20090;-66
2021/03/12 08:21:58;;;;;;;9.38;1.70;;;;;;;;;;4975338;28;20023;-66
2021/03/12 08:24:42;;;;;;;9.73;2.20;;;;;;;;;;4979049;28;20037;-66
2021/03/12 08:27:07;;;;;;;12.68;1.98;;;;;;;;;;4967762;28;20523;-66
2021/03/12 08:29:34;;;;;;;13.60;1.73;;;;;;;;;;4968995;28;20042;-66
2021/03/12 08:32:00;;;;;;;10.15;1.88;;;;;;;;;;4977226;28;20023;-66
2021/03/12 08:34:42;;;;;;;8.50;1.52;;;;;;;;;;4995722;28;20101;-66
2021/03/12 08:37:25;;;;;;;15.13;4.07;;;;;;;;;;4993201;28;20041;-66
2021/03/12 08:40:10;;;;;;;6.78;1.50;;;;;;;;;;4991032;28;20905;-66
2021/03/12 08:42:54;;;;;;;6.05;1.23;;;;;;;;;;4988825;28;20483;-66
2021/03/12 08:45:38;;;;;;;10.10;1.45;;;;;;;;;;4991907;28;20503;-66
2021/03/12 08:48:05;;;;;;;7.80;1.95;;;;;;;;;;4986535;28;20128;-66
2021/03/12 08:50:31;;;;;;;9.70;1.55;;;;;;;;;;4989689;28;20386;-66
2021/03/12 08:52:56;;;;;;;4.78;1.25;;;;;;;;;;4989235;28;20038;-66
2021/03/12 08:55:22;;;;;;;9.57;2.30;;;;;;;;;;4991971;28;20391;-66
2021/03/12 08:57:47;;;;;;;3.20;1.13;;;;;;;;;;4991062;28;20403;-66
2021/03/12 09:00:14;;;;;;;5.68;1.20;;;;;;;;;;4992650;28;20034;-66
2021/03/12 09:02:39;;;;;;;8.93;1.20;;;;;;;;;;4992675;28;20061;-66
2021/03/12 09:05:24;;;;;;;5.15;1.00;;;;;;;;;;4992846;28;20482;-66
2021/03/12 09:07:53;;;;;;;8.23;1.13;;;;;;;;;;4991939;28;20034;-66
2021/03/12 09:10:26;;;;;;;6.22;0.93;;;;;;;;;;4992396;28;20054;-66
2021/03/12 09:12:51;;;;;;;3.47;0.90;;;;;;;;;;4992339;28;20459;-66
2021/03/12 09:15:23;;;;;;;6.43;1.25;;;;;;;;;;4991771;28;20097;-66
2021/03/12 09:17:49;;;;;;;8.50;0.90;;;;;;;;;;4992715;28;20057;-67
2021/03/12 09:20:15;;;;;;;6.00;1.15;;;;;;;;;;4991344;28;20499;-66
2021/03/12 09:22:48;;;;;;;10.18;1.50;;;;;;;;;;4993309;28;20470;-66
2021/03/12 09:25:13;;;;;;;11.45;1.27;;;;;;;;;;4992590;28;20029;-67
2021/03/12 09:27:39;;;;;;;7.55;1.40;;;;;;;;;;4993508;28;20031;-66
2021/03/12 09:30:04;;;;;;;11.05;1.50;;;;;;;;;;4992765;28;20040;-67
2021/03/12 09:32:37;;;;;;;2.83;0.80;;;;;;;;;;4992781;28;20037;-66
2021/03/12 09:35:12;;;;;;;5.82;1.20;;;;;;;;;;4982702;28;20030;-66
2021/03/12 09:37:37;;;;;;;;;;;;;;;;;;4985968;28;20113;-66
2021/03/12 09:40:03;;;;;;;8.20;1.73;;;;;;;;;;4987662;28;20004;-66
2021/03/12 09:42:28;;;;;;;10.10;3.00;;;;;;;;;;4986920;28;20057;-66
2021/03/12 09:44:53;;;;;;;5.53;1.40;;;;;;;;;;4987636;28;20065;-67
2021/03/12 09:47:19;;;;;;;6.10;1.77;;;;;;;;;;4987454;28;20034;-67
2021/03/12 09:49:45;;;;;;;2.63;0.73;;;;;;;;;;4988045;28;20043;-67
2021/03/12 09:52:12;;;;;;;9.23;1.67;;;;;;;;;;4981573;28;20078;-67
2021/03/12 09:54:40;;;;;;;8.23;1.20;;;;;;;;;;4970278;28;20039;-67
2021/03/12 09:57:06;;;;;;;5.22;1.40;;;;;;;;;;4982012;28;20038;-66
2021/03/12 09:59:33;;;;;;;9.52;1.45;;;;;;;;;;4986903;28;20061;-67
2021/03/12 10:02:02;;;;;;;10.80;1.50;;;;;;;;;;4987019;28;20097;-66
2021/03/12 10:04:36;;;;;;;7.93;1.95;;;;;;;;;;4986391;28;20076;-67
2021/03/12 10:07:04;;;;;;;7.28;1.63;;;;;;;;;;4987356;28;20062;-67
2021/03/12 10:09:30;;;;;;;4.75;1.35;;;;;;;;;;4986122;28;20049;-67
2021/03/12 10:11:56;;;;;;;5.80;1.58;;;;;;;;;;4987022;28;20018;-67
2021/03/12 10:14:30;;;;;;;7.55;1.55;;;;;;;;;;4987874;28;20446;-67
2021/03/12 10:17:14;;;;;;;6.80;2.08;;;;;;;;;;4987195;28;20042;-67
2021/03/12 10:19:40;;;;;;;3.95;1.30;;;;;;;;;;4986404;28;20026;-67
2021/03/12 10:22:12;;;;;;;10.02;2.70;;;;;;;;;;4985796;28;20751;-67
2021/03/12 10:24:38;;;;;;;7.93;1.98;;;;;;;;;;4985951;28;20508;-67
2021/03/12 10:27:03;;;;;;;8.15;1.60;;;;;;;;;;4987389;28;20026;-67
2021/03/12 10:29:28;;;;;;;10.82;1.95;;;;;;;;;;4985811;28;20042;-68
2021/03/12 10:31:53;;;;;;;10.40;1.73;;;;;;;;;;4986627;28;20033;-67
2021/03/12 10:34:39;;;;;;;7.50;1.60;;;;;;;;;;4986711;28;20032;-67
2021/03/12 10:37:14;;;;;;;8.57;1.63;;;;;;;;;;4986592;28;20042;-66
2021/03/12 10:39:40;;;;;;;6.88;1.67;;;;;;;;;;4985666;28;20545;-67
2021/03/12 10:42:06;;;;;;;8.40;1.70;;;;;;;;;;4986308;28;20046;-66
2021/03/12 10:44:46;;;;;;;5.43;1.30;;;;;;;;;;4975232;28;20046;-66
2021/03/12 10:47:12;;;;;;;8.48;1.33;;;;;;;;;;4981514;28;20561;-66
2021/03/12 10:49:37;;;;;;;7.50;1.52;;;;;;;;;;4992932;28;20042;-66
2021/03/12 10:52:02;;;;;;;9.38;1.52;;;;;;;;;;5000029;28;20022;-66
2021/03/12 10:54:28;;;;;;;7.85;1.23;;;;;;;;;;5005687;28;20036;-67
2021/03/12 10:56:54;;;;;;;7.55;1.33;;;;;;;;;;4998227;28;20030;-66
2021/03/12 10:59:20;;;;;;;4.68;1.25;;;;;;;;;;4998287;28;20633;-66
2021/03/12 11:01:48;;;;;;;8.60;1.40;;;;;;;;;;4991652;28;20466;-66
2021/03/12 11:04:14;;;;;;;6.63;2.28;;;;;;;;;;4989456;28;20030;-66
2021/03/12 11:06:41;;;;;;;7.40;1.42;;;;;;;;;;5000753;28;20018;-66
2021/03/12 11:09:09;;;;;;;10.80;1.42;;;;;;;;;;4996879;28;20080;-66
2021/03/12 11:11:35;;;;;;;6.50;1.65;;;;;;;;;;4993722;28;20030;-66
2021/03/12 11:14:00;;;;;;;6.93;1.52;;;;;;;;;;4995570;28;20591;-66
2021/03/12 11:16:25;;;;;;;9.70;1.58;;;;;;;;;;5002648;28;20521;-66
2021/03/12 11:18:51;;;;;;;7.13;1.40;;;;;;;;;;4995062;28;20066;-66
2021/03/12 11:21:16;;;;;;;17.27;3.78;;;;;;;;;;4995329;28;20082;-67
2021/03/12 11:23:43;;;;;;;11.88;1.58;;;;;;;;;;5001650;28;20061;-66
2021/03/12 11:26:09;;;;;;;12.48;1.73;;;;;;;;;;4985514;28;20092;-67
2021/03/12 11:28:34;;;;;;;8.75;2.10;;;;;;;;;;4982924;28;20045;-67
2021/03/12 11:31:02;;;;;;;11.00;1.80;;;;;;;;;;4983720;28;20466;-66
2021/03/12 11:33:27;;;;;;;9.35;1.75;;;;;;;;;;4993861;28;20034;-66
2021/03/12 11:35:52;;;;;;;8.70;2.25;;;;;;;;;;4984543;28;20097;-66
2021/03/12 11:38:18;;;;;;;13.10;1.67;;;;;;;;;;4981795;28;20041;-66
2021/03/12 11:40:43;;;;;;;12.35;2.15;;;;;;;;;;4978899;28;20599;-66
2021/03/12 11:43:09;;;;;;;12.02;2.10;;;;;;;;;;4982821;28;20760;-66
2021/03/12 11:45:35;;;;;;;12.45;1.70;;;;;;;;;;4984705;28;20155;-67
2021/03/12 11:48:02;;;;;;;11.43;1.90;;;;;;;;;;4974719;28;20038;-66
2021/03/12 11:50:27;;;;;;;12.63;2.80;;;;;;;;;;4981230;28;20034;-66
2021/03/12 11:52:53;;;;;;;11.20;1.90;;;;;;;;;;4981284;28;20030;-66
2021/03/12 11:55:19;;;;;;;7.63;1.45;;;;;;;;;;4993290;28;20091;-66
2021/03/12 11:57:44;;;;;;;14.68;1.88;;;;;;;;;;4986593;28;20045;-66
2021/03/12 12:00:10;;;;;;;11.98;2.17;;;;;;;;;;4996656;28;20265;-66
2021/03/12 12:02:36;;;;;;;8.20;2.00;;;;;;;;;;4989031;28;20414;-66
2021/03/12 12:05:02;;;;;;;11.85;1.70;;;;;;;;;;4987655;28;20025;-66
2021/03/12 12:07:28;;;;;;;9.18;1.52;;;;;;;;;;5003023;28;20038;-66
2021/03/12 12:09:53;;;;;;;17.38;1.95;;;;;;;;;;4993789;28;20422;-66
2021/03/12 12:12:19;;;;;;;14.48;4.40;;;;;;;;;;4999920;28;20089;-66
2021/03/12 12:14:46;;;;;;;9.13;1.73;;;;;;;;;;5002797;28;20033;-66
2021/03/12 12:17:11;;;;;;;11.65;1.90;;;;;;;;;;4999732;28;20513;-66
2021/03/12 12:19:37;;;;;;;12.10;1.77;;;;;;;;;;4993173;28;20042;-66
2021/03/12 12:22:02;;;;;;;16.67;2.20;;;;;;;;;;5005410;28;20117;-66
2021/03/12 12:24:27;;;;;;;9.57;1.73;;;;;;;;;;4993445;28;20429;-66
2021/03/12 12:26:53;;;;;;;11.63;2.33;;;;;;;;;;5001740;28;20066;-66
2021/03/12 12:29:18;;;;;;;13.93;2.30;;;;;;;;;;4991854;28;20042;-66
2021/03/12 12:31:44;;;;;;;9.00;2.28;;;;;;;;;;5003635;28;20479;-65
2021/03/12 12:34:09;;;;;;;15.75;1.88;;;;;;;;;;4991903;28;20026;-66
2021/03/12 12:36:35;;;;;;;13.68;1.85;;;;;;;;;;5002477;28;20106;-66
2021/03/12 12:39:03;;;;;;;14.18;2.67;;;;;;;;;;4989789;28;20431;-67
2021/03/12 12:41:28;;;;;;;12.80;1.92;;;;;;;;;;4997805;28;20386;-66
2021/03/12 12:43:53;;;;;;;9.48;2.25;;;;;;;;;;4989614;28;20046;-66
2021/03/12 12:46:19;;;;;;;17.98;2.33;;;;;;;;;;4977060;28;20482;-66
2021/03/12 12:48:44;;;;;;;11.10;2.13;;;;;;;;;;5000220;28;20038;-66
2021/03/12 12:51:10;;;;;;;17.83;2.80;;;;;;;;;;4998875;28;20483;-66
2021/03/12 12:53:35;;;;;;;14.05;2.13;;;;;;;;;;4993716;28;20046;-66
2021/03/12 12:56:01;;;;;;;13.45;2.13;;;;;;;;;;5005415;28;20058;-65
2021/03/12 12:58:26;;;;;;;10.63;1.77;;;;;;;;;;4993412;28;20072;-66
2021/03/12 13:00:52;;;;;;;14.07;2.58;;;;;;;;;;5001304;28;20034;-66
2021/03/12 13:03:17;;;;;;;17.98;3.17;;;;;;;;;;4999386;28;20447;-66
2021/03/12 13:05:43;;;;;;;10.05;2.17;;;;;;;;;;4993620;28;20474;-66
2021/03/12 13:08:08;;;;;;;10.90;2.20;;;;;;;;;;5005019;28;20100;-67
2021/03/12 13:10:34;;;;;;;13.73;2.58;;;;;;;;;;4993106;28;20018;-66
2021/03/12 13:12:59;;;;;;;9.40;1.95;;;;;;;;;;4997467;28;20037;-66
2021/03/12 13:15:25;;;;;;;9.52;2.05;;;;;;;;;;4995342;28;20076;-66
2021/03/12 13:17:50;;;;;;;8.93;1.92;;;;;;;;;;5004685;28;20044;-66
2021/03/12 13:20:18;;;;;;;10.88;2.28;;;;;;;;;;4991524;28;20044;-66
2021/03/12 13:22:45;;;;;;;13.32;2.20;;;;;;;;;;4999505;28;20042;-66
2021/03/12 13:25:12;;;;;;;17.17;2.20;;;;;;;;;;4984478;28;20367;-65
2021/03/12 13:27:37;;;;;;;14.27;1.55;;;;;;;;;;4999321;28;20038;-66
2021/03/12 13:30:04;;;;;;;13.88;2.05;;;;;;;;;;4991947;28;20045;-66
2021/03/12 13:32:29;;;;;;;6.88;1.75;;;;;;;;;;4992380;28;20470;-65
2021/03/12 13:34:55;;;;;;;15.25;2.45;;;;;;;;;;4998815;28;20514;-66
2021/03/12 13:37:20;;;;;;;8.20;2.60;;;;;;;;;;4999227;28;20037;-66
2021/03/12 13:39:45;;;;;;;10.73;2.10;;;;;;;;;;5007613;28;20022;-66
2021/03/12 13:42:10;;;;;;;14.18;2.38;;;;;;;;;;4990972;28;20034;-65
2021/03/12 13:44:36;;;;;;;11.05;1.65;;;;;;;;;;5001405;28;20426;-66
2021/03/12 13:47:02;;;;;;;15.40;2.85;;;;;;;;;;4996652;28;20022;-66
2021/03/12 13:49:28;;;;;;;12.38;2.15;;;;;;;;;;4994664;28;20120;-65
2021/03/12 13:51:53;;;;;;;13.35;2.67;;;;;;;;;;5003915;28;20498;-66
2021/03/12 13:54:18;;;;;;;16.23;2.95;;;;;;;;;;4991411;28;20018;-66
2021/03/12 13:56:44;;;;;;;11.35;2.03;;;;;;;;;;5000239;28;20037;-65
2021/03/12 13:59:09;;;;;;;17.33;3.00;;;;;;;;;;4997834;28;20144;-66
2021/03/12 14:01:34;;;;;;;13.60;2.55;;;;;;;;;;4994052;28;20037;-65
2021/03/12 14:04:00;;;;;;;6.63;1.67;;;;;;;;;;5003563;28;20071;-66
2021/03/12 14:06:25;;;;;;;19.77;2.28;;;;;;;;;;4991614;28;20057;-66
2021/03/12 14:08:50;;;;;;;16.40;2.33;;;;;;;;;;4999571;28;20120;-65
2021/03/12 14:11:15;;;;;;;13.05;2.30;;;;;;;;;;4987851;28;20034;-66
2021/03/12 14:13:40;;;;;;;12.85;2.08;;;;;;;;;;4987774;28;20066;-66
2021/03/12 14:16:06;;;;;;;12.93;1.75;;;;;;;;;;5002739;28;20025;-65
2021/03/12 14:18:31;;;;;;;6.53;1.58;;;;;;;;;;4990373;28;20029;-66
2021/03/12 14:20:56;;;;;;;8.43;1.42;;;;;;;;;;4987514;28;20038;-66
2021/03/12 14:23:21;;;;;;;13.95;1.70;;;;;;;;;;4987121;28;20054;-66
2021/03/12 14:25:48;;;;;;;11.98;2.22;;;;;;;;;;4986675;28;20610;-66
2021/03/12 14:28:13;;;;;;;9.43;1.73;;;;;;;;;;5003433;28;20053;-66
2021/03/12 14:30:39;;;;;;;9.77;1.70;;;;;;;;;;5006981;28;20026;-66
2021/03/12 14:33:05;;;;;;;15.57;1.70;;;;;;;;;;5007071;28;20033;-67
2021/03/12 14:35:31;;;;;;;14.32;1.77;;;;;;;;;;5006414;28;20030;-67